Time;durP1;ratioP1;P1;durP2;ratioP2;P2;SDS_P1;SDS_P2;PMS_P1;PMS_P2;Temp;Humidity;BMP_temperature;BMP_pressure;BME280_temperature;BME280_humidity;BME280_pressure;Samples;Min_cycle;Max_cycle;Signal;HPM_P1;HPM_P2
2023/06/26 00:01:14;;;;;;;8.57;5.30;;;;;;;;;;5050879;28;20032;-73
2023/06/26 00:03:39;;;;;;;9.88;6.07;;;;;;;;;;5053717;28;20259;-72
2023/06/26 00:06:04;;;;;;;10.70;5.57;;;;;;;;;;5053225;28;20025;-73
2023/06/26 00:08:29;;;;;;;9.77;5.30;;;;;;;;;;5050288;28;20271;-73
2023/06/26 00:10:55;;;;;;;9.77;5.53;;;;;;;;;;5052692;28;20290;-74
2023/06/26 00:13:20;;;;;;;11.85;6.22;;;;;;;;;;5051814;28;20275;-72
2023/06/26 00:15:45;;;;;;;10.30;5.78;;;;;;;;;;5052034;28;20017;-73
2023/06/26 00:18:10;;;;;;;10.13;5.57;;;;;;;;;;5053477;28;20477;-72
2023/06/26 00:20:35;;;;;;;11.03;6.07;;;;;;;;;;5050924;28;20267;-73
2023/06/26 00:23:01;;;;;;;10.63;6.23;;;;;;;;;;5048501;28;20280;-72
2023/06/26 00:25:26;;;;;;;12.13;5.80;;;;;;;;;;5051032;28;20024;-72
2023/06/26 00:27:51;;;;;;;9.35;5.72;;;;;;;;;;5049011;28;20532;-72
2023/06/26 00:30:16;;;;;;;9.35;6.22;;;;;;;;;;5051737;28;20025;-72
2023/06/26 00:32:41;;;;;;;11.00;6.00;;;;;;;;;;5052545;28;20025;-73
2023/06/26 00:35:07;;;;;;;10.40;6.33;;;;;;;;;;5051245;28;20017;-72
2023/06/26 00:37:32;;;;;;;9.43;5.70;;;;;;;;;;5050428;28;20271;-73
2023/06/26 00:39:57;;;;;;;10.40;6.35;;;;;;;;;;5051140;28;20279;-72
2023/06/26 00:42:22;;;;;;;8.07;5.77;;;;;;;;;;5049679;28;20020;-73
2023/06/26 00:44:48;;;;;;;12.67;6.23;;;;;;;;;;5051516;28;20282;-74
2023/06/26 00:47:15;;;;;;;12.60;6.17;;;;;;;;;;5051034;28;20251;-74
2023/06/26 00:49:40;;;;;;;10.50;6.80;;;;;;;;;;5049997;28;20021;-73
2023/06/26 00:52:05;;;;;;;12.27;5.77;;;;;;;;;;5050295;28;20566;-72
2023/06/26 00:54:31;;;;;;;13.60;5.95;;;;;;;;;;5051065;28;20032;-72
2023/06/26 00:56:56;;;;;;;9.10;5.85;;;;;;;;;;5050206;28;20113;-72
2023/06/26 00:59:21;;;;;;;9.57;6.00;;;;;;;;;;5050708;28;20033;-73
2023/06/26 01:01:48;;;;;;;13.90;5.63;;;;;;;;;;5050634;28;20267;-73
2023/06/26 01:04:17;;;;;;;10.35;6.03;;;;;;;;;;5051400;28;20386;-73
2023/06/26 01:06:43;;;;;;;10.73;6.77;;;;;;;;;;5048368;28;20097;-72
2023/06/26 01:09:08;;;;;;;7.70;5.70;;;;;;;;;;5051924;28;20025;-73
2023/06/26 01:11:33;;;;;;;12.07;5.43;;;;;;;;;;5049319;28;20071;-72
2023/06/26 01:13:59;;;;;;;8.43;5.63;;;;;;;;;;5051493;28;20744;-73
2023/06/26 01:16:25;;;;;;;8.93;6.35;;;;;;;;;;5052191;28;20021;-73
2023/06/26 01:18:50;;;;;;;10.30;5.93;;;;;;;;;;5052198;28;20095;-72
2023/06/26 01:21:15;;;;;;;9.25;5.63;;;;;;;;;;5051424;28;20531;-73
2023/06/26 01:23:59;;;;;;;14.88;6.32;;;;;;;;;;5050329;28;20071;-72
2023/06/26 01:26:26;;;;;;;10.90;5.65;;;;;;;;;;5049743;28;20029;-72
2023/06/26 01:28:52;;;;;;;10.52;6.00;;;;;;;;;;5046530;28;20032;-73
2023/06/26 01:31:18;;;;;;;11.05;5.78;;;;;;;;;;5051275;28;20021;-72
2023/06/26 01:33:44;;;;;;;10.40;6.13;;;;;;;;;;5050439;28;20685;-74
2023/06/26 01:36:10;;;;;;;8.18;5.07;;;;;;;;;;5047735;28;20044;-73
2023/06/26 01:38:35;;;;;;;8.07;5.75;;;;;;;;;;5046519;28;20021;-72
2023/06/26 01:41:01;;;;;;;12.35;7.05;;;;;;;;;;5050705;28;20528;-72
2023/06/26 01:43:45;;;;;;;9.60;5.50;;;;;;;;;;5051737;28;20109;-73
2023/06/26 01:46:33;;;;;;;10.93;6.03;;;;;;;;;;5051977;28;20017;-74
2023/06/26 01:49:07;;;;;;;9.48;6.03;;;;;;;;;;5043501;28;20037;-74
2023/06/26 01:51:41;;;;;;;12.23;6.68;;;;;;;;;;5047099;28;20444;-73
2023/06/26 01:54:09;;;;;;;8.02;5.55;;;;;;;;;;5050862;28;20703;-72
2023/06/26 01:56:35;;;;;;;9.77;5.57;;;;;;;;;;5049146;28;20043;-72
2023/06/26 01:59:01;;;;;;;11.82;6.07;;;;;;;;;;5050580;28;20028;-72
2023/06/26 02:01:26;;;;;;;9.50;5.78;;;;;;;;;;5049957;28;20024;-73
2023/06/26 02:03:52;;;;;;;8.77;5.60;;;;;;;;;;5050499;28;20405;-72
2023/06/26 02:06:17;;;;;;;11.47;6.13;;;;;;;;;;5050666;28;20422;-72
2023/06/26 02:08:42;;;;;;;9.60;5.83;;;;;;;;;;5050557;28;20294;-72
2023/06/26 02:11:07;;;;;;;11.65;5.97;;;;;;;;;;5047634;28;20259;-73
2023/06/26 02:13:32;;;;;;;11.03;6.53;;;;;;;;;;5050700;28;20029;-72
2023/06/26 02:15:58;;;;;;;10.27;6.57;;;;;;;;;;5051299;28;20021;-74
2023/06/26 02:18:24;;;;;;;9.60;6.17;;;;;;;;;;5051325;28;20583;-72
2023/06/26 02:20:49;;;;;;;11.55;7.47;;;;;;;;;;5046034;28;20033;-72
2023/06/26 02:23:14;;;;;;;11.52;7.05;;;;;;;;;;5049274;28;20013;-73
2023/06/26 02:25:39;;;;;;;14.75;6.93;;;;;;;;;;5049458;28;20024;-73
2023/06/26 02:28:05;;;;;;;11.13;6.60;;;;;;;;;;5050434;28;20024;-73
2023/06/26 02:30:30;;;;;;;11.40;6.87;;;;;;;;;;5048995;28;20283;-73
2023/06/26 02:32:55;;;;;;;11.67;7.47;;;;;;;;;;5049164;28;20271;-72
2023/06/26 02:35:20;;;;;;;10.27;7.07;;;;;;;;;;5048000;28;20350;-72
2023/06/26 02:37:45;;;;;;;10.80;6.27;;;;;;;;;;5049411;28;20017;-73
2023/06/26 02:40:11;;;;;;;12.13;7.90;;;;;;;;;;5046375;28;20378;-72
2023/06/26 02:42:36;;;;;;;10.88;6.68;;;;;;;;;;5048041;28;20299;-72
2023/06/26 02:45:02;;;;;;;10.57;6.95;;;;;;;;;;5049314;28;20027;-73
2023/06/26 02:47:27;;;;;;;11.68;7.28;;;;;;;;;;5050158;28;20021;-72
2023/06/26 02:49:52;;;;;;;13.63;7.40;;;;;;;;;;5050293;28;20048;-72
2023/06/26 02:52:18;;;;;;;10.60;6.67;;;;;;;;;;5048357;28;20033;-72
2023/06/26 02:54:44;;;;;;;15.13;7.30;;;;;;;;;;5047914;28;20039;-72
2023/06/26 02:57:09;;;;;;;12.00;6.70;;;;;;;;;;5048395;28;20021;-72
2023/06/26 02:59:34;;;;;;;12.93;6.90;;;;;;;;;;5049623;28;20024;-72
2023/06/26 03:01:59;;;;;;;12.38;6.85;;;;;;;;;;5047159;28;20035;-72
2023/06/26 03:04:24;;;;;;;11.83;7.23;;;;;;;;;;5049591;28;20025;-74
2023/06/26 03:06:50;;;;;;;11.73;7.13;;;;;;;;;;5049426;28;20361;-72
2023/06/26 03:09:16;;;;;;;12.97;7.27;;;;;;;;;;5050476;28;20388;-74
2023/06/26 03:11:41;;;;;;;11.93;7.10;;;;;;;;;;5046290;28;20271;-73
2023/06/26 03:14:07;;;;;;;10.27;7.10;;;;;;;;;;5050395;28;20092;-72
2023/06/26 03:16:32;;;;;;;10.17;7.00;;;;;;;;;;5048756;28;20060;-72
2023/06/26 03:18:57;;;;;;;14.02;7.65;;;;;;;;;;5045320;28;20282;-73
2023/06/26 03:21:22;;;;;;;10.60;6.80;;;;;;;;;;5049200;28;20079;-72
2023/06/26 03:23:48;;;;;;;13.40;7.00;;;;;;;;;;5050044;28;20084;-73
2023/06/26 03:26:14;;;;;;;11.55;7.03;;;;;;;;;;5049705;28;20537;-72
2023/06/26 03:28:39;;;;;;;14.70;7.07;;;;;;;;;;5050228;28;20024;-72
2023/06/26 03:31:04;;;;;;;11.27;7.07;;;;;;;;;;5044803;28;20021;-73
2023/06/26 03:33:30;;;;;;;11.23;7.30;;;;;;;;;;5048685;28;20393;-72
2023/06/26 03:35:55;;;;;;;11.80;7.33;;;;;;;;;;5049919;28;20104;-72
2023/06/26 03:38:21;;;;;;;9.47;6.70;;;;;;;;;;5050156;28;20279;-73
2023/06/26 03:40:46;;;;;;;12.38;6.88;;;;;;;;;;5048111;28;20634;-74
2023/06/26 03:43:11;;;;;;;13.43;7.50;;;;;;;;;;5046688;28;20029;-72
2023/06/26 03:45:36;;;;;;;9.70;7.50;;;;;;;;;;5042613;28;20276;-73
2023/06/26 03:48:02;;;;;;;10.67;7.33;;;;;;;;;;5046672;28;20267;-72
2023/06/26 03:50:27;;;;;;;12.17;6.80;;;;;;;;;;5045774;28;20385;-72
2023/06/26 03:52:54;;;;;;;17.20;7.00;;;;;;;;;;5039490;28;20824;-72
2023/06/26 03:55:19;;;;;;;15.55;6.72;;;;;;;;;;5047575;28;20267;-72
2023/06/26 03:57:44;;;;;;;12.80;6.85;;;;;;;;;;5048609;28;20501;-72
2023/06/26 04:00:12;;;;;;;14.38;7.75;;;;;;;;;;5048638;28;20343;-72
2023/06/26 04:02:38;;;;;;;16.17;7.55;;;;;;;;;;5048941;28;20172;-72
2023/06/26 04:05:04;;;;;;;13.70;7.43;;;;;;;;;;5045797;28;20036;-72
2023/06/26 04:07:30;;;;;;;12.32;7.07;;;;;;;;;;5047293;28;20031;-72
2023/06/26 04:09:56;;;;;;;10.55;6.50;;;;;;;;;;5045363;28;20017;-72
2023/06/26 04:12:21;;;;;;;13.03;7.17;;;;;;;;;;5048922;28;20036;-73
2023/06/26 04:14:46;;;;;;;12.30;7.18;;;;;;;;;;5047750;28;20325;-72
2023/06/26 04:17:11;;;;;;;12.07;5.67;;;;;;;;;;5046342;28;20012;-74
2023/06/26 04:19:36;;;;;;;12.23;6.17;;;;;;;;;;5044296;28;20834;-72
2023/06/26 04:22:02;;;;;;;9.20;5.25;;;;;;;;;;5049076;28;20017;-73
2023/06/26 04:24:27;;;;;;;10.73;5.80;;;;;;;;;;5047975;28;20424;-73
2023/06/26 04:26:52;;;;;;;9.37;5.80;;;;;;;;;;5049151;28;20025;-72
2023/06/26 04:29:18;;;;;;;10.00;5.03;;;;;;;;;;5049397;28;20310;-74
2023/06/26 04:31:46;;;;;;;12.33;5.73;;;;;;;;;;5049884;28;20025;-72
2023/06/26 04:34:11;;;;;;;12.05;5.65;;;;;;;;;;5051429;28;20025;-72
2023/06/26 04:36:38;;;;;;;9.67;6.10;;;;;;;;;;5048849;28;20466;-73
2023/06/26 04:39:04;;;;;;;12.15;5.85;;;;;;;;;;5051896;28;20325;-72
2023/06/26 04:41:29;;;;;;;12.80;6.45;;;;;;;;;;5046706;28;20026;-72
2023/06/26 04:43:54;;;;;;;7.85;5.43;;;;;;;;;;5052440;28;20058;-72
2023/06/26 04:46:20;;;;;;;15.80;6.00;;;;;;;;;;5053069;28;20017;-72
2023/06/26 04:48:45;;;;;;;11.63;5.97;;;;;;;;;;5052974;28;20295;-72
2023/06/26 04:51:10;;;;;;;12.53;6.13;;;;;;;;;;5045481;28;20278;-72
2023/06/26 04:53:36;;;;;;;11.05;5.85;;;;;;;;;;5047856;28;20440;-72
2023/06/26 04:56:01;;;;;;;12.87;6.37;;;;;;;;;;5050697;28;20028;-72
2023/06/26 04:58:26;;;;;;;11.10;5.93;;;;;;;;;;5052301;28;20088;-72
2023/06/26 05:00:51;;;;;;;12.33;5.83;;;;;;;;;;5050269;28;20413;-73
2023/06/26 05:03:17;;;;;;;13.83;5.60;;;;;;;;;;5050125;28;20829;-72
2023/06/26 05:05:42;;;;;;;11.82;6.05;;;;;;;;;;5048093;28;20032;-72
2023/06/26 05:08:14;;;;;;;11.27;5.93;;;;;;;;;;5052145;28;20143;-72
2023/06/26 05:10:39;;;;;;;13.52;5.40;;;;;;;;;;5051280;28;20017;-72
2023/06/26 05:13:05;;;;;;;9.73;5.20;;;;;;;;;;5050049;28;20036;-73
2023/06/26 05:15:30;;;;;;;8.03;5.57;;;;;;;;;;5049583;28;20098;-72
2023/06/26 05:17:55;;;;;;;9.63;5.30;;;;;;;;;;5050815;28;20039;-73
2023/06/26 05:20:20;;;;;;;9.27;4.97;;;;;;;;;;5039717;28;20021;-72
2023/06/26 05:22:45;;;;;;;8.67;4.93;;;;;;;;;;5045617;28;20431;-72
2023/06/26 05:25:11;;;;;;;14.07;5.13;;;;;;;;;;5046760;28;20029;-73
2023/06/26 05:27:36;;;;;;;10.77;5.65;;;;;;;;;;5049961;28;20013;-72
2023/06/26 05:30:02;;;;;;;19.33;5.25;;;;;;;;;;5046540;28;20107;-73
2023/06/26 05:32:28;;;;;;;15.80;5.22;;;;;;;;;;5048184;28;20106;-73
2023/06/26 05:34:54;;;;;;;14.93;5.15;;;;;;;;;;5046236;28;20021;-73
2023/06/26 05:37:22;;;;;;;12.38;5.05;;;;;;;;;;5045253;28;20024;-72
2023/06/26 05:39:47;;;;;;;10.40;4.88;;;;;;;;;;5048008;28;20031;-72
2023/06/26 05:42:13;;;;;;;12.52;5.00;;;;;;;;;;5049660;28;20020;-72
2023/06/26 05:44:38;;;;;;;10.18;5.35;;;;;;;;;;5046089;28;20036;-73
2023/06/26 05:47:04;;;;;;;10.40;5.20;;;;;;;;;;5044925;28;20021;-72
2023/06/26 05:49:29;;;;;;;9.85;5.25;;;;;;;;;;5044268;28;20052;-73
2023/06/26 05:51:54;;;;;;;11.07;4.83;;;;;;;;;;5044098;28;20083;-72
2023/06/26 05:54:19;;;;;;;8.85;4.88;;;;;;;;;;5050477;28;20324;-72
2023/06/26 05:56:45;;;;;;;13.68;5.95;;;;;;;;;;5046569;28;20016;-72
2023/06/26 05:59:10;;;;;;;12.75;4.40;;;;;;;;;;5047946;28;20115;-72
2023/06/26 06:01:36;;;;;;;9.95;5.30;;;;;;;;;;5045344;28;20665;-72
2023/06/26 06:04:01;;;;;;;13.73;4.90;;;;;;;;;;5045869;28;20466;-72
2023/06/26 06:06:26;;;;;;;11.40;4.53;;;;;;;;;;5046471;28;20052;-73
2023/06/26 06:08:52;;;;;;;13.18;4.97;;;;;;;;;;5045046;28;20632;-73
2023/06/26 06:11:17;;;;;;;11.70;5.10;;;;;;;;;;5050037;28;20096;-72
2023/06/26 06:13:42;;;;;;;11.90;5.70;;;;;;;;;;5051339;28;20501;-72
2023/06/26 06:16:07;;;;;;;10.88;5.25;;;;;;;;;;5043900;28;20288;-72
2023/06/26 06:18:33;;;;;;;10.02;4.82;;;;;;;;;;5049265;28;20075;-72
2023/06/26 06:20:58;;;;;;;10.03;4.87;;;;;;;;;;5044180;28;22615;-73
2023/06/26 06:23:23;;;;;;;11.63;4.93;;;;;;;;;;5043751;28;20278;-72
2023/06/26 06:25:48;;;;;;;17.67;4.80;;;;;;;;;;5045042;28;20394;-73
2023/06/26 06:28:16;;;;;;;9.77;4.90;;;;;;;;;;5044931;28;20371;-71
2023/06/26 06:30:41;;;;;;;21.90;4.90;;;;;;;;;;5050814;28;20687;-72
2023/06/26 06:33:06;;;;;;;12.43;6.10;;;;;;;;;;5045310;28;20021;-72
2023/06/26 06:35:31;;;;;;;15.03;5.97;;;;;;;;;;5042236;28;20294;-72
2023/06/26 06:37:56;;;;;;;13.40;5.33;;;;;;;;;;5049931;28;20028;-72
2023/06/26 06:40:22;;;;;;;12.37;5.40;;;;;;;;;;5039740;28;20290;-72
2023/06/26 06:42:47;;;;;;;16.02;5.40;;;;;;;;;;5045208;28;20263;-72
2023/06/26 06:45:13;;;;;;;18.00;4.93;;;;;;;;;;5048263;28;20016;-72
2023/06/26 06:47:38;;;;;;;13.02;4.90;;;;;;;;;;5048270;28;20021;-72
2023/06/26 06:50:07;;;;;;;17.90;4.82;;;;;;;;;;5043916;28;20067;-72
2023/06/26 06:52:33;;;;;;;14.00;5.35;;;;;;;;;;5040306;28;20103;-72
2023/06/26 06:54:58;;;;;;;11.18;4.55;;;;;;;;;;5042738;28;20029;-72
2023/06/26 06:57:24;;;;;;;10.25;4.88;;;;;;;;;;5046241;28;20024;-72
2023/06/26 06:59:50;;;;;;;12.35;4.72;;;;;;;;;;5043164;28;20029;-72
2023/06/26 07:02:17;;;;;;;11.67;4.87;;;;;;;;;;5048944;28;20025;-72
2023/06/26 07:04:42;;;;;;;13.77;6.20;;;;;;;;;;5050360;28;20255;-72
2023/06/26 07:07:08;;;;;;;13.83;5.63;;;;;;;;;;5049415;28;20013;-71
2023/06/26 07:09:33;;;;;;;10.32;5.45;;;;;;;;;;5047468;28;20271;-72
2023/06/26 07:11:58;;;;;;;10.10;4.83;;;;;;;;;;5047291;28;20025;-72
2023/06/26 07:14:24;;;;;;;13.50;4.50;;;;;;;;;;5049138;28;20267;-72
2023/06/26 07:16:49;;;;;;;14.47;4.87;;;;;;;;;;5039990;28;20268;-72
2023/06/26 07:19:14;;;;;;;11.83;4.73;;;;;;;;;;5049254;28;20072;-71
2023/06/26 07:21:41;;;;;;;11.97;5.07;;;;;;;;;;5048791;28;20263;-72
2023/06/26 07:24:06;;;;;;;12.23;4.80;;;;;;;;;;5049574;28;20324;-72
2023/06/26 07:26:31;;;;;;;11.13;5.00;;;;;;;;;;5047284;28;20377;-72
2023/06/26 07:28:56;;;;;;;11.13;4.90;;;;;;;;;;5044183;28;20767;-72
2023/06/26 07:31:22;;;;;;;8.13;4.43;;;;;;;;;;5048343;28;20029;-72
2023/06/26 07:33:47;;;;;;;10.77;4.70;;;;;;;;;;5047550;28;20312;-72
2023/06/26 07:36:12;;;;;;;8.20;4.40;;;;;;;;;;5049759;28;20393;-72
2023/06/26 07:38:37;;;;;;;12.37;6.27;;;;;;;;;;5047122;28;20330;-72
2023/06/26 07:41:02;;;;;;;12.97;5.73;;;;;;;;;;5042984;28;20259;-72
2023/06/26 07:43:28;;;;;;;13.50;5.47;;;;;;;;;;5048721;28;20350;-72
2023/06/26 07:45:53;;;;;;;14.23;5.50;;;;;;;;;;5046435;28;20032;-72
2023/06/26 07:48:18;;;;;;;13.25;4.50;;;;;;;;;;5049493;28;20478;-72
2023/06/26 07:50:43;;;;;;;11.50;5.30;;;;;;;;;;5048580;28;20075;-72
2023/06/26 07:53:09;;;;;;;13.00;6.17;;;;;;;;;;5045744;28;20017;-73
2023/06/26 07:55:34;;;;;;;20.57;6.87;;;;;;;;;;5047939;28;20358;-72
2023/06/26 07:58:01;;;;;;;14.50;6.40;;;;;;;;;;5047742;28;20267;-72
2023/06/26 08:00:26;;;;;;;17.83;5.70;;;;;;;;;;5046212;28;20685;-72
2023/06/26 08:02:51;;;;;;;12.00;5.28;;;;;;;;;;5049380;28;20075;-72
2023/06/26 08:05:16;;;;;;;10.70;4.57;;;;;;;;;;5053534;28;20025;-72
2023/06/26 08:07:42;;;;;;;10.27;4.85;;;;;;;;;;5051640;28;20013;-72
2023/06/26 08:10:07;;;;;;;17.40;4.93;;;;;;;;;;5050013;28;20051;-72
2023/06/26 08:12:32;;;;;;;11.48;5.80;;;;;;;;;;5051586;28;20279;-72
2023/06/26 08:14:57;;;;;;;14.27;5.03;;;;;;;;;;5051172;28;20024;-72
2023/06/26 08:17:22;;;;;;;26.47;5.70;;;;;;;;;;5050507;28;21194;-72
2023/06/26 08:19:48;;;;;;;11.23;5.30;;;;;;;;;;5049992;28;20283;-72
2023/06/26 08:22:13;;;;;;;13.17;5.20;;;;;;;;;;5050665;28;20053;-71
2023/06/26 08:24:38;;;;;;;15.45;5.68;;;;;;;;;;5051784;28;20139;-71
2023/06/26 08:27:03;;;;;;;14.80;5.17;;;;;;;;;;5051415;28;20028;-72
2023/06/26 08:29:29;;;;;;;19.45;5.18;;;;;;;;;;5052683;28;20056;-72
2023/06/26 08:31:54;;;;;;;18.23;4.90;;;;;;;;;;5050056;28;20482;-72
2023/06/26 08:34:19;;;;;;;13.40;4.73;;;;;;;;;;5052068;28;20020;-72
2023/06/26 08:36:44;;;;;;;12.95;4.50;;;;;;;;;;5049658;28;20259;-72
2023/06/26 08:39:10;;;;;;;20.23;5.82;;;;;;;;;;5047551;28;20036;-72
2023/06/26 08:41:36;;;;;;;16.85;4.50;;;;;;;;;;5049393;28;20013;-72
2023/06/26 08:44:02;;;;;;;13.90;5.18;;;;;;;;;;5050270;28;20039;-72
2023/06/26 08:46:28;;;;;;;15.07;4.25;;;;;;;;;;5052260;28;20024;-72
2023/06/26 08:48:56;;;;;;;14.35;4.80;;;;;;;;;;5049399;28;20412;-72
2023/06/26 08:51:24;;;;;;;16.08;5.35;;;;;;;;;;5048476;28;20025;-73
2023/06/26 08:53:59;;;;;;;13.32;5.10;;;;;;;;;;5051616;28;20029;-72
2023/06/26 08:56:27;;;;;;;13.38;5.35;;;;;;;;;;5049496;28;20028;-72
2023/06/26 08:58:53;;;;;;;12.38;5.32;;;;;;;;;;5051386;28;20013;-72
2023/06/26 09:01:18;;;;;;;15.63;5.70;;;;;;;;;;5046843;28;20086;-72
2023/06/26 09:03:44;;;;;;;14.80;4.65;;;;;;;;;;5049319;28;20319;-72
2023/06/26 09:06:09;;;;;;;16.57;5.10;;;;;;;;;;5050145;28;20048;-72
2023/06/26 09:08:34;;;;;;;14.48;4.80;;;;;;;;;;5050472;28;20366;-72
2023/06/26 09:11:00;;;;;;;14.73;4.60;;;;;;;;;;5046341;28;20387;-72
2023/06/26 09:13:25;;;;;;;15.60;5.22;;;;;;;;;;5049352;28;21511;-72
2023/06/26 09:15:52;;;;;;;14.82;4.53;;;;;;;;;;5047710;28;20048;-72
2023/06/26 09:18:19;;;;;;;12.05;4.43;;;;;;;;;;5049774;28;20569;-72
2023/06/26 09:20:44;;;;;;;13.82;5.18;;;;;;;;;;5049932;28;20017;-72
2023/06/26 09:23:09;;;;;;;11.23;4.50;;;;;;;;;;5049247;28;20327;-73
2023/06/26 09:25:37;;;;;;;19.00;4.75;;;;;;;;;;5049119;28;20264;-72
2023/06/26 09:28:03;;;;;;;17.52;4.63;;;;;;;;;;5051174;28;20017;-73
2023/06/26 09:30:28;;;;;;;14.75;4.55;;;;;;;;;;5051305;28;20021;-72
2023/06/26 09:32:54;;;;;;;11.00;4.53;;;;;;;;;;5050467;28;20012;-72
2023/06/26 09:35:19;;;;;;;13.32;4.15;;;;;;;;;;5050670;28;20424;-72
2023/06/26 09:37:44;;;;;;;12.18;4.10;;;;;;;;;;5051057;28;20009;-73
2023/06/26 09:40:09;;;;;;;21.83;4.60;;;;;;;;;;5047527;28;20082;-72
2023/06/26 09:42:35;;;;;;;19.45;4.68;;;;;;;;;;5048873;28;20279;-72
2023/06/26 09:45:01;;;;;;;11.55;4.22;;;;;;;;;;5051675;28;20016;-72
2023/06/26 09:47:29;;;;;;;12.02;3.67;;;;;;;;;;5050319;28;20021;-72
2023/06/26 09:49:55;;;;;;;11.93;4.13;;;;;;;;;;5046840;28;20489;-72
2023/06/26 09:52:20;;;;;;;9.43;3.72;;;;;;;;;;5048677;28;20032;-72
2023/06/26 09:54:46;;;;;;;14.25;4.03;;;;;;;;;;5047324;28;20104;-72
2023/06/26 09:57:12;;;;;;;15.10;4.25;;;;;;;;;;5043865;28;20500;-72
2023/06/26 09:59:38;;;;;;;13.00;3.50;;;;;;;;;;5051212;28;20108;-72
2023/06/26 10:02:03;;;;;;;18.40;4.20;;;;;;;;;;5049203;28;20100;-72
2023/06/26 10:04:29;;;;;;;23.38;5.10;;;;;;;;;;5049349;28;20013;-72
2023/06/26 10:06:55;;;;;;;8.27;3.50;;;;;;;;;;5051027;28;20063;-72
2023/06/26 10:09:21;;;;;;;7.30;3.13;;;;;;;;;;5050873;28;20017;-72
2023/06/26 10:11:48;;;;;;;12.60;3.33;;;;;;;;;;5048101;28;20020;-72
2023/06/26 10:14:14;;;;;;;10.77;3.42;;;;;;;;;;5047884;28;20108;-72
2023/06/26 10:16:41;;;;;;;11.98;3.60;;;;;;;;;;5049505;28;20111;-72
2023/06/26 10:19:08;;;;;;;11.68;3.42;;;;;;;;;;5050404;28;20029;-72
2023/06/26 10:21:34;;;;;;;11.52;3.35;;;;;;;;;;5048353;28;20037;-72
2023/06/26 10:24:00;;;;;;;20.38;4.20;;;;;;;;;;5050198;28;20104;-72
2023/06/26 10:26:26;;;;;;;10.23;3.35;;;;;;;;;;5045580;28;20083;-72
2023/06/26 10:28:52;;;;;;;9.77;4.13;;;;;;;;;;5049823;28;20020;-72
2023/06/26 10:31:19;;;;;;;12.90;3.22;;;;;;;;;;5048192;28;20025;-72
2023/06/26 10:33:45;;;;;;;17.55;3.53;;;;;;;;;;5049561;28;20083;-72
2023/06/26 10:36:14;;;;;;;13.38;3.08;;;;;;;;;;5047829;28;20021;-72
2023/06/26 10:38:52;;;;;;;9.70;3.17;;;;;;;;;;5048249;28;20505;-72
2023/06/26 10:41:22;;;;;;;8.73;3.50;;;;;;;;;;5046263;28;20021;-72
2023/06/26 10:43:50;;;;;;;9.80;2.67;;;;;;;;;;5050410;28;20036;-72
2023/06/26 10:46:17;;;;;;;15.02;4.15;;;;;;;;;;5048715;28;20446;-72
2023/06/26 10:49:09;;;;;;;8.82;3.10;;;;;;;;;;5047937;28;20048;-72
2023/06/26 10:51:34;;;;;;;8.73;2.58;;;;;;;;;;5045975;28;20112;-72
2023/06/26 10:54:00;;;;;;;7.90;2.93;;;;;;;;;;5049279;28;20108;-72
2023/06/26 10:56:42;;;;;;;12.25;2.75;;;;;;;;;;5046861;28;20017;-72
2023/06/26 10:59:15;;;;;;;9.57;3.13;;;;;;;;;;5046110;28;20056;-72
2023/06/26 11:01:41;;;;;;;11.77;4.00;;;;;;;;;;5047847;28;20462;-72
2023/06/26 11:04:07;;;;;;;16.38;3.05;;;;;;;;;;5048565;28;20304;-72
2023/06/26 11:06:34;;;;;;;6.28;2.80;;;;;;;;;;5049671;28;20101;-72
2023/06/26 11:09:05;;;;;;;11.30;3.40;;;;;;;;;;5048600;28;20024;-72
2023/06/26 11:12:04;;;;;;;17.02;3.10;;;;;;;;;;5049167;28;20029;-72
2023/06/26 11:14:31;;;;;;;7.40;2.40;;;;;;;;;;5010651;28;20063;-72
2023/06/26 11:16:56;;;;;;;9.00;2.72;;;;;;;;;;5050023;28;20100;-72
2023/06/26 11:19:21;;;;;;;11.13;2.90;;;;;;;;;;5047005;28;20108;-72
2023/06/26 11:21:47;;;;;;;10.03;2.40;;;;;;;;;;5046370;28;20031;-72
2023/06/26 11:24:13;;;;;;;12.45;2.55;;;;;;;;;;5047575;28;20013;-72
2023/06/26 11:26:38;;;;;;;11.73;2.25;;;;;;;;;;5046993;28;20047;-72
2023/06/26 11:29:04;;;;;;;10.38;2.20;;;;;;;;;;5048687;28;20135;-72
2023/06/26 11:31:33;;;;;;;11.77;1.75;;;;;;;;;;5050362;28;20363;-72
2023/06/26 11:34:05;;;;;;;8.02;2.00;;;;;;;;;;5049843;28;20021;-72
2023/06/26 11:36:31;;;;;;;14.15;2.10;;;;;;;;;;5049293;28;20024;-72
2023/06/26 11:38:57;;;;;;;12.15;2.47;;;;;;;;;;5052220;28;20025;-72
2023/06/26 11:41:23;;;;;;;6.80;2.50;;;;;;;;;;5051240;28;20037;-72
2023/06/26 11:43:48;;;;;;;13.68;3.10;;;;;;;;;;5051137;28;20089;-72
2023/06/26 11:46:16;;;;;;;13.45;3.25;;;;;;;;;;5042275;28;20432;-72
2023/06/26 11:48:41;;;;;;;14.50;2.00;;;;;;;;;;5040318;28;20021;-72
2023/06/26 11:51:06;;;;;;;6.43;1.97;;;;;;;;;;5052063;28;20078;-72
2023/06/26 11:53:31;;;;;;;17.20;2.53;;;;;;;;;;5050347;28;20274;-72
2023/06/26 11:55:56;;;;;;;7.65;2.58;;;;;;;;;;5047613;28;20381;-73
2023/06/26 11:58:22;;;;;;;6.07;2.00;;;;;;;;;;5052562;28;20025;-72
2023/06/26 12:00:47;;;;;;;6.32;1.90;;;;;;;;;;5050299;28;20009;-72
2023/06/26 12:03:12;;;;;;;6.28;2.00;;;;;;;;;;5053510;28;20009;-72
2023/06/26 12:05:38;;;;;;;8.87;2.27;;;;;;;;;;5052384;28;20378;-72
2023/06/26 12:08:06;;;;;;;12.15;2.42;;;;;;;;;;5050820;28;20267;-72
2023/06/26 12:10:31;;;;;;;7.63;1.88;;;;;;;;;;5052505;28;20013;-73
2023/06/26 12:12:58;;;;;;;7.07;1.90;;;;;;;;;;5052792;28;20089;-72
2023/06/26 12:15:24;;;;;;;6.65;1.98;;;;;;;;;;5049976;28;20478;-72
2023/06/26 12:17:49;;;;;;;5.07;2.35;;;;;;;;;;5054125;28;20020;-73
2023/06/26 12:20:19;;;;;;;16.95;2.45;;;;;;;;;;5047308;28;20048;-72
2023/06/26 12:22:45;;;;;;;12.40;1.65;;;;;;;;;;5050577;28;20089;-72
2023/06/26 12:25:10;;;;;;;7.40;1.55;;;;;;;;;;5049045;28;20027;-72
2023/06/26 12:27:36;;;;;;;6.27;2.13;;;;;;;;;;5052273;28;20385;-73
2023/06/26 12:30:03;;;;;;;9.67;2.20;;;;;;;;;;5050412;28;20025;-72
2023/06/26 12:32:28;;;;;;;7.97;2.17;;;;;;;;;;5049753;28;20362;-72
2023/06/26 12:34:55;;;;;;;5.63;1.30;;;;;;;;;;5052642;28;20096;-72
2023/06/26 12:37:21;;;;;;;5.18;1.70;;;;;;;;;;5049014;28;20284;-73
2023/06/26 12:39:50;;;;;;;4.10;1.77;;;;;;;;;;5048705;28;20055;-73
2023/06/26 12:42:16;;;;;;;7.63;2.00;;;;;;;;;;5049831;28;20032;-72
2023/06/26 12:44:42;;;;;;;6.53;1.73;;;;;;;;;;5049359;28;20016;-72
2023/06/26 12:47:08;;;;;;;6.93;1.50;;;;;;;;;;5051692;28;20543;-72
2023/06/26 12:49:33;;;;;;;11.00;1.88;;;;;;;;;;5050922;28;20031;-72
2023/06/26 12:51:59;;;;;;;11.52;1.83;;;;;;;;;;5052539;28;20100;-72
2023/06/26 12:54:24;;;;;;;9.20;2.17;;;;;;;;;;5048339;28;20033;-72
2023/06/26 12:56:50;;;;;;;5.45;1.90;;;;;;;;;;5050227;28;20040;-72
2023/06/26 12:59:15;;;;;;;4.20;1.60;;;;;;;;;;5050356;28;20040;-72
2023/06/26 13:01:40;;;;;;;7.57;2.03;;;;;;;;;;5051887;28;20092;-72
2023/06/26 13:04:05;;;;;;;6.85;1.45;;;;;;;;;;5052367;28;20032;-73
2023/06/26 13:06:31;;;;;;;6.32;1.42;;;;;;;;;;5049058;28;20017;-73
2023/06/26 13:08:57;;;;;;;6.47;1.48;;;;;;;;;;5048176;28;20032;-72
2023/06/26 13:11:22;;;;;;;4.13;1.35;;;;;;;;;;5044266;28;20028;-72
2023/06/26 13:13:47;;;;;;;12.70;1.83;;;;;;;;;;5050358;28;20032;-72
2023/06/26 13:16:13;;;;;;;4.60;1.50;;;;;;;;;;5049016;28;20270;-72
2023/06/26 13:18:38;;;;;;;9.05;1.17;;;;;;;;;;5050931;28;20285;-72
2023/06/26 13:21:03;;;;;;;9.03;1.40;;;;;;;;;;5048678;28;20406;-72
2023/06/26 13:23:28;;;;;;;2.13;1.13;;;;;;;;;;5050042;28;20605;-72
2023/06/26 13:25:54;;;;;;;4.53;1.03;;;;;;;;;;5046375;28;20143;-72
2023/06/26 13:28:19;;;;;;;3.73;0.90;;;;;;;;;;5048521;28;20100;-72
2023/06/26 13:30:44;;;;;;;4.63;0.87;;;;;;;;;;5051188;28;20267;-72
2023/06/26 13:33:10;;;;;;;3.77;1.07;;;;;;;;;;5050211;28;20490;-73
2023/06/26 13:35:36;;;;;;;9.60;1.00;;;;;;;;;;5049997;28;20532;-72
2023/06/26 13:38:01;;;;;;;7.95;1.10;;;;;;;;;;5050318;28;20031;-71
2023/06/26 13:40:26;;;;;;;7.73;1.37;;;;;;;;;;5049285;28;20078;-72
2023/06/26 13:42:51;;;;;;;7.43;1.07;;;;;;;;;;5049051;28;20279;-72
2023/06/26 13:45:16;;;;;;;8.60;1.40;;;;;;;;;;5050225;28;20100;-72
2023/06/26 13:47:41;;;;;;;8.23;1.70;;;;;;;;;;5050622;28;20017;-72
2023/06/26 13:50:08;;;;;;;2.70;1.00;;;;;;;;;;5048309;28;20275;-72
2023/06/26 13:52:33;;;;;;;12.77;1.77;;;;;;;;;;5047609;28;20274;-72
2023/06/26 13:54:58;;;;;;;7.77;1.30;;;;;;;;;;5049936;28;20021;-72
2023/06/26 13:57:23;;;;;;;2.83;1.10;;;;;;;;;;5046580;28;20314;-72
2023/06/26 13:59:48;;;;;;;4.60;1.27;;;;;;;;;;5045269;28;20383;-72
2023/06/26 14:02:14;;;;;;;4.80;1.10;;;;;;;;;;5046730;28;20030;-72
2023/06/26 14:04:39;;;;;;;9.00;1.73;;;;;;;;;;5049743;28;20275;-73
2023/06/26 14:07:05;;;;;;;5.13;1.45;;;;;;;;;;5049509;28;20044;-72
2023/06/26 14:09:30;;;;;;;7.28;1.30;;;;;;;;;;5048466;28;20477;-73
2023/06/26 14:11:55;;;;;;;7.37;1.50;;;;;;;;;;5049960;28;20033;-72
2023/06/26 14:14:20;;;;;;;6.03;1.17;;;;;;;;;;5047894;28;20135;-72
2023/06/26 14:16:45;;;;;;;4.17;1.30;;;;;;;;;;5050091;28;20298;-73
2023/06/26 14:19:14;;;;;;;3.73;1.50;;;;;;;;;;5048696;28;20074;-73
2023/06/26 14:21:40;;;;;;;5.88;0.90;;;;;;;;;;5045873;28;20017;-72
2023/06/26 14:24:05;;;;;;;5.53;1.42;;;;;;;;;;5047347;28;20028;-72
2023/06/26 14:26:32;;;;;;;2.95;1.13;;;;;;;;;;5049684;28;20099;-71